createdAt,value
2023-04-27T00:00:13.663Z,100.00
2023-04-27T00:02:42.373Z,100.00
2023-04-27T00:05:12.106Z,100.00
2023-04-27T00:07:40.544Z,100.00
2023-04-27T00:10:10.218Z,100.00
2023-04-27T00:12:38.536Z,100.00
2023-04-27T00:15:07.773Z,100.00
2023-04-27T00:17:37.693Z,100.00
2023-04-27T00:20:08.357Z,100.00
2023-04-27T00:22:36.749Z,100.00
2023-04-27T00:25:05.293Z,100.00
2023-04-27T00:27:33.658Z,100.00
2023-04-27T00:30:01.990Z,100.00
2023-04-27T00:32:30.313Z,100.00
2023-04-27T00:34:59.983Z,100.00
2023-04-27T00:37:28.406Z,100.00
2023-04-27T00:39:56.752Z,100.00
2023-04-27T00:42:25.210Z,100.00
2023-04-27T00:44:53.540Z,100.00
2023-04-27T00:47:21.989Z,100.00
2023-04-27T00:49:50.710Z,100.00
2023-04-27T00:52:20.617Z,100.00
2023-04-27T00:54:52.026Z,100.00
2023-04-27T00:57:20.662Z,100.00
2023-04-27T00:59:49.181Z,100.00
2023-04-27T01:02:17.770Z,100.00
2023-04-27T01:04:46.180Z,100.00
2023-04-27T01:07:14.514Z,100.00
2023-04-27T01:09:44.237Z,100.00
2023-04-27T01:12:12.522Z,100.00
2023-04-27T01:14:40.770Z,100.00
2023-04-27T01:17:09.258Z,100.00
2023-04-27T01:19:38.371Z,100.00
2023-04-27T01:22:07.221Z,100.00
2023-04-27T01:24:36.869Z,100.00
2023-04-27T01:27:05.475Z,100.00
2023-04-27T01:29:33.827Z,100.00
2023-04-27T01:32:02.119Z,100.00
2023-04-27T01:34:30.426Z,100.00
2023-04-27T01:36:58.646Z,100.00
2023-04-27T01:39:27.405Z,100.00
2023-04-27T01:41:58.472Z,100.00
2023-04-27T01:44:27.025Z,100.00
2023-04-27T01:46:55.282Z,100.00
2023-04-27T01:49:23.539Z,100.00
2023-04-27T01:51:51.821Z,100.00
2023-04-27T01:54:20.108Z,100.00
2023-04-27T01:56:48.421Z,100.00
2023-04-27T01:59:18.036Z,100.00
2023-04-27T02:01:46.291Z,100.00
2023-04-27T02:04:15.248Z,100.00
2023-04-27T02:06:43.779Z,100.00
2023-04-27T02:09:12.292Z,100.00
2023-04-27T02:11:40.867Z,100.00
2023-04-27T02:14:09.214Z,100.00
2023-04-27T02:16:39.019Z,100.00
2023-04-27T02:19:07.491Z,100.00
2023-04-27T02:21:36.429Z,100.00
2023-04-27T02:24:05.382Z,100.00
2023-04-27T02:26:33.663Z,100.00
2023-04-27T02:29:03.094Z,100.00
2023-04-27T02:31:32.056Z,100.00
2023-04-27T02:34:01.807Z,100.00
2023-04-27T02:36:30.106Z,100.00
2023-04-27T02:38:58.462Z,100.00
2023-04-27T02:41:28.239Z,100.00
2023-04-27T02:43:56.462Z,100.00
2023-04-27T02:46:25.169Z,97.59
2023-04-27T02:48:53.427Z,100.00
2023-04-27T02:51:23.119Z,100.00
2023-04-27T02:53:51.472Z,100.00
2023-04-27T02:56:19.695Z,100.00
2023-04-27T02:58:48.113Z,100.00
2023-04-27T03:01:17.504Z,100.00
2023-04-27T03:03:49.052Z,100.00
2023-04-27T03:06:17.830Z,100.00
2023-04-27T03:08:47.718Z,100.00
2023-04-27T03:11:16.237Z,100.00
2023-04-27T03:13:44.575Z,100.00
2023-04-27T03:16:13.212Z,100.00
2023-04-27T03:18:42.022Z,100.00
2023-04-27T03:21:11.301Z,100.00
2023-04-27T03:23:40.306Z,100.00
2023-04-27T03:26:11.006Z,100.00
2023-04-27T03:28:39.587Z,100.00
2023-04-27T03:31:08.288Z,100.00
2023-04-27T03:33:36.802Z,100.00
2023-04-27T03:36:06.789Z,100.00
2023-04-27T03:38:36.436Z,100.00
2023-04-27T03:41:04.657Z,100.00
2023-04-27T03:43:34.495Z,100.00
2023-04-27T03:46:02.945Z,100.00
2023-04-27T03:48:31.283Z,100.00
2023-04-27T03:50:59.581Z,100.00
2023-04-27T03:53:27.788Z,100.00
2023-04-27T03:55:56.196Z,100.00
2023-04-27T03:58:24.475Z,100.00
2023-04-27T04:00:54.784Z,100.00
2023-04-27T04:03:23.228Z,100.00
2023-04-27T04:05:51.757Z,100.00
2023-04-27T04:08:20.034Z,100.00
2023-04-27T04:10:48.303Z,100.00
2023-04-27T04:13:16.653Z,99.62
2023-04-27T04:15:44.982Z,100.00
2023-04-27T04:18:14.653Z,99.33
2023-04-27T04:20:44.008Z,99.58
2023-04-27T04:23:12.317Z,99.19
2023-04-27T04:25:41.853Z,100.00
2023-04-27T04:28:10.227Z,100.00
2023-04-27T04:30:39.752Z,100.00
2023-04-27T04:33:08.838Z,100.00
2023-04-27T04:35:41.620Z,100.00
2023-04-27T04:38:10.234Z,100.00
2023-04-27T04:40:40.269Z,100.00
2023-04-27T04:43:08.604Z,99.83
2023-04-27T04:45:37.210Z,96.08
2023-04-27T04:48:05.812Z,97.39
2023-04-27T04:50:34.281Z,93.07
2023-04-27T04:53:03.918Z,91.02
2023-04-27T04:55:32.171Z,87.92
2023-04-27T04:58:00.463Z,86.60
2023-04-27T05:00:28.907Z,89.07
2023-04-27T05:02:57.383Z,84.02
2023-04-27T05:05:26.150Z,83.42
2023-04-27T05:07:54.501Z,81.83
2023-04-27T05:10:24.180Z,80.39
2023-04-27T05:15:39.324Z,80.84
2023-04-27T05:18:07.724Z,79.68
2023-04-27T05:20:36.653Z,78.89
2023-04-27T05:23:05.147Z,79.36
2023-04-27T05:25:41.527Z,78.72
2023-04-27T05:28:10.141Z,77.07
2023-04-27T05:30:38.514Z,76.63
2023-04-27T05:33:07.081Z,75.92
2023-04-27T05:35:35.791Z,74.14
2023-04-27T05:38:04.467Z,72.04
2023-04-27T05:40:34.125Z,73.01
2023-04-27T05:43:05.792Z,71.75
2023-04-27T05:45:34.532Z,70.93
2023-04-27T05:48:02.830Z,70.66
2023-04-27T05:50:31.244Z,76.51
2023-04-27T05:52:59.452Z,76.66
2023-04-27T05:55:27.772Z,78.73
2023-04-27T05:58:07.096Z,81.89
2023-04-27T06:00:36.667Z,82.05
2023-04-27T06:03:05.273Z,77.41
2023-04-27T06:05:34.474Z,80.95
2023-04-27T06:08:02.942Z,80.18
2023-04-27T06:10:31.259Z,77.83
2023-04-27T06:13:00.999Z,77.41
2023-04-27T06:15:29.490Z,77.82
2023-04-27T06:17:57.969Z,76.30
2023-04-27T06:20:26.511Z,73.40
2023-04-27T06:22:54.831Z,70.13
2023-04-27T06:25:27.053Z,67.13
2023-04-27T06:27:55.775Z,65.64
2023-04-27T06:30:25.801Z,62.84
2023-04-27T06:32:54.058Z,59.87
2023-04-27T06:35:22.378Z,58.13
2023-04-27T06:37:51.427Z,56.44
2023-04-27T06:40:19.814Z,56.44
2023-04-27T06:42:48.102Z,56.63
2023-04-27T06:45:16.386Z,56.82
2023-04-27T06:47:46.093Z,59.23
2023-04-27T06:50:14.388Z,57.52
2023-04-27T06:52:42.698Z,55.92
2023-04-27T06:55:11.578Z,55.02
2023-04-27T06:57:39.919Z,53.17
2023-04-27T07:00:09.429Z,49.08
2023-04-27T07:02:37.782Z,50.89
2023-04-27T07:05:07.964Z,52.02
2023-04-27T07:07:36.290Z,49.72
2023-04-27T07:10:05.251Z,48.89
2023-04-27T07:12:33.515Z,48.60
2023-04-27T07:15:03.794Z,48.86
2023-04-27T07:17:32.121Z,54.91
2023-04-27T07:20:00.666Z,48.67
2023-04-27T07:22:30.325Z,48.82
2023-04-27T07:24:58.530Z,47.33
2023-04-27T07:27:27.557Z,48.23
2023-04-27T07:29:56.810Z,46.16
2023-04-27T07:32:25.614Z,47.84
2023-04-27T07:34:56.229Z,45.84
2023-04-27T07:37:24.490Z,47.04
2023-04-27T07:39:54.583Z,43.77
2023-04-27T07:42:23.689Z,42.97
2023-04-27T07:44:52.615Z,43.65
2023-04-27T07:47:22.048Z,43.29
2023-04-27T07:49:50.423Z,43.39
2023-04-27T07:52:18.661Z,41.17
2023-04-27T07:54:47.078Z,39.21
2023-04-27T07:57:16.822Z,39.93
2023-04-27T07:59:45.991Z,39.74
2023-04-27T08:02:19.578Z,43.58
2023-04-27T08:04:49.549Z,40.37
2023-04-27T08:07:19.221Z,38.35
2023-04-27T08:09:47.949Z,40.47
2023-04-27T08:12:17.711Z,40.03
2023-04-27T08:14:45.910Z,41.73
2023-04-27T08:17:14.177Z,40.72
2023-04-27T08:19:42.673Z,39.52
2023-04-27T08:22:11.076Z,41.51
2023-04-27T08:24:39.363Z,39.82
2023-04-27T08:27:08.231Z,38.80
2023-04-27T08:29:37.976Z,40.46
2023-04-27T08:32:07.092Z,37.30
2023-04-27T08:34:35.323Z,35.73
2023-04-27T08:37:04.605Z,35.45
2023-04-27T08:39:33.038Z,33.92
2023-04-27T08:42:01.438Z,35.57
2023-04-27T08:44:30.812Z,37.85
2023-04-27T08:47:00.659Z,38.24
2023-04-27T08:49:28.952Z,34.06
2023-04-27T08:51:57.197Z,36.40
2023-04-27T08:54:25.783Z,37.09
2023-04-27T08:56:54.090Z,35.75
2023-04-27T08:59:22.322Z,35.02
2023-04-27T09:01:51.316Z,34.38
2023-04-27T09:04:21.237Z,35.97
2023-04-27T09:06:50.294Z,36.08
2023-04-27T09:09:25.453Z,39.49
2023-04-27T09:11:53.845Z,41.52
2023-04-27T09:14:23.886Z,39.97
2023-04-27T09:16:59.563Z,39.80
2023-04-27T09:19:30.711Z,39.79
2023-04-27T09:22:09.567Z,41.04
2023-04-27T09:24:38.207Z,41.64
2023-04-27T09:27:09.109Z,41.90
2023-04-27T09:29:38.682Z,38.96
2023-04-27T09:32:17.892Z,39.21
2023-04-27T09:34:48.220Z,41.18
2023-04-27T09:37:17.743Z,42.17
2023-04-27T09:39:46.877Z,43.92
2023-04-27T09:42:16.260Z,39.85
2023-04-27T09:44:44.627Z,39.12
2023-04-27T09:47:15.064Z,40.74
2023-04-27T09:49:43.390Z,40.29
2023-04-27T09:52:13.274Z,39.04
2023-04-27T09:54:42.416Z,36.48
2023-04-27T09:57:25.342Z,36.56
2023-04-27T10:00:11.133Z,34.21
2023-04-27T10:02:53.222Z,33.79
2023-04-27T10:05:39.614Z,35.17
2023-04-27T10:08:11.723Z,36.26
2023-04-27T10:10:49.495Z,35.38
2023-04-27T10:13:26.383Z,34.31
2023-04-27T10:15:55.668Z,33.48
2023-04-27T10:18:28.844Z,32.46
2023-04-27T10:20:57.200Z,35.39
2023-04-27T10:23:27.957Z,33.30
2023-04-27T10:25:57.404Z,35.78
2023-04-27T10:28:25.624Z,35.57
2023-04-27T10:30:53.898Z,34.54
2023-04-27T10:33:25.356Z,37.50
2023-04-27T10:35:58.706Z,36.36
2023-04-27T10:38:31.686Z,37.94
2023-04-27T10:41:02.399Z,38.71
2023-04-27T10:43:31.964Z,35.65
2023-04-27T10:46:09.660Z,37.43
2023-04-27T10:48:38.573Z,34.86
2023-04-27T10:51:07.077Z,37.22
2023-04-27T10:53:37.499Z,34.81
2023-04-27T10:56:07.288Z,34.33
2023-04-27T10:58:48.339Z,35.98
2023-04-27T11:01:25.962Z,33.06
2023-04-27T11:03:57.325Z,33.49
2023-04-27T11:06:28.296Z,36.34
2023-04-27T11:08:58.440Z,34.17
2023-04-27T11:11:26.863Z,34.19
2023-04-27T11:13:56.636Z,31.39
2023-04-27T11:16:25.403Z,31.18
2023-04-27T11:18:53.762Z,28.88
2023-04-27T11:21:23.744Z,31.94
2023-04-27T11:23:52.119Z,32.94
2023-04-27T11:26:23.921Z,29.38
2023-04-27T11:29:00.198Z,29.50
2023-04-27T11:31:29.229Z,29.72
2023-04-27T11:33:57.551Z,30.68
2023-04-27T11:36:27.284Z,31.97
2023-04-27T11:39:00.166Z,31.50
2023-04-27T11:41:36.493Z,29.88
2023-04-27T11:44:08.674Z,29.10
2023-04-27T11:46:38.298Z,28.10
2023-04-27T11:49:08.972Z,28.00
2023-04-27T11:51:37.863Z,26.95
2023-04-27T11:54:07.702Z,27.67
2023-04-27T11:56:38.660Z,27.43
2023-04-27T11:59:06.966Z,28.22
2023-04-27T12:01:38.266Z,29.16
2023-04-27T12:04:06.978Z,28.52
2023-04-27T12:06:35.415Z,28.96
2023-04-27T12:09:04.450Z,26.84
2023-04-27T12:11:32.902Z,28.12
2023-04-27T12:14:03.514Z,28.72
2023-04-27T12:16:32.068Z,29.91
2023-04-27T12:19:00.320Z,29.04
2023-04-27T12:21:28.629Z,27.70
2023-04-27T12:23:56.962Z,29.82
2023-04-27T12:26:25.750Z,29.44
2023-04-27T12:28:54.105Z,29.94
2023-04-27T12:31:27.734Z,30.14
2023-04-27T12:33:56.292Z,29.73
2023-04-27T12:36:24.679Z,27.99
2023-04-27T12:38:53.542Z,28.72
2023-04-27T12:41:23.404Z,29.65
2023-04-27T12:43:51.731Z,31.58
2023-04-27T12:46:20.125Z,32.05
2023-04-27T12:48:50.009Z,31.04
2023-04-27T12:51:18.477Z,30.62
2023-04-27T12:53:46.749Z,30.80
2023-04-27T12:56:15.019Z,29.76
2023-04-27T12:58:43.377Z,31.62
2023-04-27T13:01:15.074Z,30.95
2023-04-27T13:03:43.725Z,33.02
2023-04-27T13:06:13.773Z,31.38
2023-04-27T13:08:43.400Z,30.47
2023-04-27T13:11:11.766Z,28.86
2023-04-27T13:13:40.038Z,28.73
2023-04-27T13:16:08.616Z,30.05
2023-04-27T13:18:37.213Z,31.38
2023-04-27T13:21:07.481Z,33.27
2023-04-27T13:23:37.211Z,34.45
2023-04-27T13:26:07.146Z,35.27
2023-04-27T13:28:35.531Z,38.25
2023-04-27T13:31:04.285Z,38.57
2023-04-27T13:33:34.238Z,40.39
2023-04-27T13:36:04.004Z,42.05
2023-04-27T13:38:32.387Z,40.56
2023-04-27T13:41:02.245Z,40.48
2023-04-27T13:43:31.283Z,40.95
2023-04-27T13:46:01.071Z,41.01
2023-04-27T13:48:30.251Z,41.07
2023-04-27T13:50:59.216Z,41.42
2023-04-27T13:53:28.093Z,41.77
2023-04-27T13:55:57.637Z,44.90
2023-04-27T13:58:28.886Z,49.20
2023-04-27T14:00:57.492Z,52.85
2023-04-27T14:03:27.075Z,54.39
2023-04-27T14:05:55.487Z,54.37
2023-04-27T14:08:24.060Z,56.34
2023-04-27T14:10:52.339Z,59.52
2023-04-27T14:13:20.940Z,61.62
2023-04-27T14:15:50.790Z,56.67
2023-04-27T14:18:19.180Z,58.56
2023-04-27T14:20:47.489Z,58.84
2023-04-27T14:23:15.999Z,56.10
2023-04-27T14:25:44.278Z,56.24
2023-04-27T14:28:14.905Z,56.62
2023-04-27T14:30:43.368Z,56.06
2023-04-27T14:33:13.137Z,56.18
2023-04-27T14:35:41.524Z,58.33
2023-04-27T14:38:10.012Z,56.85
2023-04-27T14:40:38.662Z,56.83
2023-04-27T14:43:07.062Z,58.27
2023-04-27T14:45:47.779Z,57.18
2023-04-27T14:48:21.210Z,56.42
2023-04-27T14:50:49.624Z,55.58
2023-04-27T14:53:17.941Z,55.76
2023-04-27T14:55:46.929Z,56.48
2023-04-27T14:58:15.589Z,57.98
2023-04-27T15:00:43.918Z,57.76
2023-04-27T15:03:12.492Z,56.07
2023-04-27T15:05:42.442Z,55.18
2023-04-27T15:08:10.833Z,56.91
2023-04-27T15:10:39.309Z,58.49
2023-04-27T15:13:07.699Z,57.69
2023-04-27T15:15:36.071Z,56.76
2023-04-27T15:18:04.610Z,56.24
2023-04-27T15:20:33.027Z,55.28
2023-04-27T15:23:02.745Z,54.35
2023-04-27T15:25:31.352Z,54.39
2023-04-27T15:28:01.336Z,55.24
2023-04-27T15:30:29.584Z,55.56
2023-04-27T15:32:57.918Z,55.25
2023-04-27T15:35:27.590Z,55.11
2023-04-27T15:37:55.962Z,54.66
2023-04-27T15:40:26.013Z,56.21
2023-04-27T15:42:54.434Z,57.94
2023-04-27T15:45:22.884Z,56.14
2023-04-27T15:47:51.369Z,55.24
2023-04-27T15:50:19.763Z,56.05
2023-04-27T15:52:48.228Z,56.50
2023-04-27T15:55:16.738Z,55.56
2023-04-27T15:57:46.430Z,54.49
2023-04-27T16:00:17.020Z,54.49
2023-04-27T16:02:45.407Z,53.78
2023-04-27T16:05:13.763Z,54.74
2023-04-27T16:07:46.189Z,54.98
2023-04-27T16:10:14.822Z,54.58
2023-04-27T16:12:43.091Z,55.49
2023-04-27T16:15:13.296Z,55.51
2023-04-27T16:17:41.860Z,56.17
2023-04-27T16:20:10.878Z,56.25
2023-04-27T16:22:39.454Z,56.69
2023-04-27T16:25:10.894Z,56.76
2023-04-27T16:27:39.443Z,56.53
2023-04-27T16:30:09.058Z,57.34
2023-04-27T16:32:39.156Z,60.19
2023-04-27T16:35:08.533Z,60.00
2023-04-27T16:37:36.823Z,57.57
2023-04-27T16:40:07.846Z,57.58
2023-04-27T16:42:36.166Z,57.32
2023-04-27T16:45:04.772Z,57.11
2023-04-27T16:47:33.106Z,56.04
2023-04-27T16:50:02.754Z,57.18
2023-04-27T16:52:31.170Z,58.03
2023-04-27T16:54:59.443Z,57.52
2023-04-27T16:57:27.724Z,58.26
2023-04-27T16:59:56.560Z,57.50
2023-04-27T17:02:25.814Z,56.59
2023-04-27T17:04:54.953Z,58.05
2023-04-27T17:07:25.693Z,60.74
2023-04-27T17:09:54.548Z,63.47
2023-04-27T17:12:22.802Z,65.29
2023-04-27T17:14:51.287Z,66.66
2023-04-27T17:17:19.670Z,67.55
2023-04-27T17:19:48.047Z,68.60
2023-04-27T17:22:16.769Z,69.91
2023-04-27T17:24:46.439Z,71.33
2023-04-27T17:27:14.745Z,68.82
2023-04-27T17:29:43.170Z,68.80
2023-04-27T17:32:11.575Z,68.90
2023-04-27T17:34:41.695Z,68.61
2023-04-27T17:37:11.328Z,69.36
2023-04-27T17:39:39.685Z,70.05
2023-04-27T17:42:12.498Z,68.80
2023-04-27T17:44:42.441Z,67.99
2023-04-27T17:47:11.100Z,68.95
2023-04-27T17:49:39.420Z,69.28
2023-04-27T17:52:07.704Z,70.53
2023-04-27T17:54:36.024Z,71.29
2023-04-27T17:57:04.386Z,70.74
2023-04-27T17:59:34.211Z,71.49
2023-04-27T18:02:03.141Z,71.88
2023-04-27T18:04:31.716Z,71.55
2023-04-27T18:07:00.158Z,71.79
2023-04-27T18:09:29.486Z,69.99
2023-04-27T18:11:59.342Z,69.26
2023-04-27T18:14:27.776Z,70.12
2023-04-27T18:16:57.477Z,70.17
2023-04-27T18:19:25.884Z,69.86
2023-04-27T18:21:54.180Z,69.96
2023-04-27T18:24:22.429Z,72.46
2023-04-27T18:26:50.741Z,72.37
2023-04-27T18:29:18.963Z,72.90
2023-04-27T18:31:47.755Z,72.03
2023-04-27T18:34:17.638Z,71.68
2023-04-27T18:36:50.933Z,70.86
2023-04-27T18:39:20.523Z,69.66
2023-04-27T18:41:48.759Z,72.34
2023-04-27T18:44:17.300Z,74.95
2023-04-27T18:46:46.336Z,73.96
2023-04-27T18:49:14.913Z,76.64
2023-04-27T18:51:44.717Z,77.89
2023-04-27T18:54:13.085Z,77.61
2023-04-27T18:56:41.394Z,79.55
2023-04-27T18:59:09.780Z,81.37
2023-04-27T19:01:38.265Z,80.56
2023-04-27T19:04:07.995Z,78.32
2023-04-27T19:06:36.470Z,77.11
2023-04-27T19:09:06.436Z,76.33
2023-04-27T19:11:34.791Z,79.33
2023-04-27T19:14:03.000Z,80.36
2023-04-27T19:16:31.294Z,82.43
2023-04-27T19:18:59.760Z,80.85
2023-04-27T19:21:28.060Z,80.76
2023-04-27T19:23:56.421Z,80.31
2023-04-27T19:26:29.036Z,78.64
2023-04-27T19:28:57.926Z,82.70
2023-04-27T19:31:26.449Z,82.63
2023-04-27T19:33:55.525Z,87.68
2023-04-27T19:36:24.748Z,89.37
2023-04-27T19:38:53.101Z,91.15
2023-04-27T19:41:22.137Z,89.03
2023-04-27T19:43:51.832Z,85.92
2023-04-27T19:46:20.331Z,86.50
2023-04-27T19:48:48.655Z,85.71
2023-04-27T19:51:16.899Z,87.54
2023-04-27T19:53:45.169Z,85.10
2023-04-27T19:56:13.602Z,87.79
2023-04-27T19:58:41.863Z,85.83
2023-04-27T20:01:13.050Z,86.36
2023-04-27T20:03:42.039Z,86.85
2023-04-27T20:06:11.367Z,85.03
2023-04-27T20:08:39.894Z,84.12
2023-04-27T20:11:08.179Z,84.69
2023-04-27T20:13:36.419Z,84.86
2023-04-27T20:16:06.711Z,83.65
2023-04-27T20:18:36.607Z,86.58
2023-04-27T20:21:05.120Z,87.50
2023-04-27T20:23:33.401Z,86.48
2023-04-27T20:26:01.779Z,86.52
2023-04-27T20:28:30.622Z,88.05
2023-04-27T20:30:58.985Z,85.58
2023-04-27T20:33:27.333Z,84.46
2023-04-27T20:36:03.593Z,84.42
2023-04-27T20:38:34.972Z,85.07
2023-04-27T20:41:03.916Z,88.49
2023-04-27T20:43:32.756Z,88.35
2023-04-27T20:46:01.101Z,89.70
2023-04-27T20:48:29.762Z,85.90
2023-04-27T20:50:59.909Z,84.93
2023-04-27T20:53:28.267Z,83.34
2023-04-27T20:55:57.046Z,82.00
2023-04-27T20:58:25.327Z,84.04
2023-04-27T21:00:53.808Z,85.51
2023-04-27T21:03:22.334Z,88.21
2023-04-27T21:05:50.715Z,91.86
2023-04-27T21:08:20.457Z,88.56
2023-04-27T21:10:48.791Z,92.03
2023-04-27T21:13:17.554Z,96.60
2023-04-27T21:15:45.950Z,96.44
2023-04-27T21:18:26.674Z,97.34
2023-04-27T21:20:58.283Z,94.02
2023-04-27T21:23:27.998Z,93.79
2023-04-27T21:25:56.333Z,93.30
2023-04-27T21:28:24.627Z,90.44
2023-04-27T21:30:52.956Z,87.11
2023-04-27T21:33:21.408Z,88.56
2023-04-27T21:35:49.725Z,89.61
2023-04-27T21:38:17.952Z,85.25
2023-04-27T21:40:48.236Z,85.17
2023-04-27T21:43:16.548Z,87.18
2023-04-27T21:45:44.921Z,88.14
2023-04-27T21:48:13.394Z,86.81
2023-04-27T21:50:41.565Z,87.79
2023-04-27T21:53:09.870Z,90.60
2023-04-27T21:55:38.243Z,89.19
2023-04-27T21:58:07.949Z,88.23
2023-04-27T22:00:36.531Z,90.66
2023-04-27T22:03:05.247Z,93.14
2023-04-27T22:05:33.678Z,89.17
2023-04-27T22:08:01.959Z,86.08
2023-04-27T22:10:30.263Z,85.58
2023-04-27T22:13:02.569Z,83.54
2023-04-27T22:15:38.356Z,83.40
2023-04-27T22:18:06.937Z,80.93
2023-04-27T22:20:35.290Z,80.16
2023-04-27T22:23:03.629Z,77.79
2023-04-27T22:25:32.661Z,77.87
2023-04-27T22:28:01.679Z,77.73
2023-04-27T22:30:30.102Z,76.17
2023-04-27T22:32:59.858Z,73.66
2023-04-27T22:35:28.262Z,74.45
2023-04-27T22:37:56.677Z,73.36
2023-04-27T22:40:25.044Z,73.84
2023-04-27T22:42:53.469Z,72.46
2023-04-27T22:45:39.291Z,70.57
2023-04-27T22:48:09.167Z,70.84
2023-04-27T22:50:37.550Z,70.05
2023-04-27T22:53:05.981Z,69.50
2023-04-27T22:55:34.370Z,69.35
2023-04-27T22:58:02.684Z,70.46
2023-04-27T23:00:31.085Z,71.56
2023-04-27T23:02:59.457Z,72.79
2023-04-27T23:05:29.398Z,72.23
2023-04-27T23:07:57.742Z,71.38
2023-04-27T23:10:26.882Z,70.50
2023-04-27T23:12:57.189Z,71.66
2023-04-27T23:15:25.477Z,68.71
2023-04-27T23:17:53.773Z,71.19
2023-04-27T23:20:28.024Z,72.08
2023-04-27T23:22:59.018Z,71.11
2023-04-27T23:25:27.339Z,70.04
2023-04-27T23:27:55.821Z,68.83
2023-04-27T23:30:24.353Z,70.61
2023-04-27T23:32:52.706Z,71.51
2023-04-27T23:35:21.283Z,72.00
2023-04-27T23:37:49.627Z,76.06
2023-04-27T23:40:19.491Z,73.94
2023-04-27T23:42:49.137Z,71.70
2023-04-27T23:45:19.324Z,70.53
2023-04-27T23:47:47.608Z,71.36
2023-04-27T23:50:16.889Z,71.94
2023-04-27T23:52:45.285Z,73.83
2023-04-27T23:55:13.591Z,73.63
2023-04-27T23:57:44.384Z,72.90
